Atlanta, Georgia
Current Conditions -  °F | °C
As of 7:52 PM on Tuesday 25 Nov 2014 (Local Time) from KATL Reporting Station
Overcast Overcast  
Wind Chill: 54°   Ceiling: 12000
Heat Index: 54°   Visibility: 10mi
Dew Point: 31°   Wind: 10mph
Humidity: 41%   Direction: 310°NW
Pressure: 30.04"   Gusts: NA
Location:  33.75°N, 84.39°W
Report Text: KATL 260052Z 31009KT 10SM BKN120 OVC200 12/M01 A3004 RMK AO2 SLP174 VIRGA NE-SE-SW T01221006
Loading
Personal Weather Stations






























Interactive Weather Map New forecast layout! Learn more

10-Day Weather Forecast

Advertisements
Track Severe Weather on mobile